Time;durP1;ratioP1;P1;durP2;ratioP2;P2;SDS_P1;SDS_P2;PMS_P1;PMS_P2;Temp;Humidity;BMP_temperature;BMP_pressure;BME280_temperature;BME280_humidity;BME280_pressure;Samples;Min_cycle;Max_cycle;Signal;HPM_P1;HPM_P2
2021/12/04 00:01:41;;;;;;;14.30;8.80;;;;;;;-2.16;67.61;99808.33;86329;1313;1003112;-67
2021/12/04 00:03:49;;;;;;;18.90;7.90;;;;;;;-2.20;67.75;99811.73;86350;1313;1003112;-67
2021/12/04 00:06:03;;;;;;;12.60;7.20;;;;;;;-2.22;67.75;99810.86;87049;1313;26599;-70
2021/12/04 00:08:10;;;;;;;15.70;9.70;;;;;;;-2.24;67.69;99811.52;87072;1313;23831;-71
2021/12/04 00:10:26;;;;;;;17.60;9.50;;;;;;;-2.26;67.75;99807.93;87044;1313;25373;-71
2021/12/04 00:12:34;;;;;;;10.10;7.00;;;;;;;-2.27;67.96;99809.63;87021;1313;26800;-67
2021/12/04 00:14:44;;;;;;;13.80;8.90;;;;;;;-2.27;68.06;99816.64;87051;1313;22562;-67
2021/12/04 00:16:51;;;;;;;14.40;8.60;;;;;;;-2.26;68.03;99818.70;87073;1313;25314;-71
2021/12/04 00:19:00;;;;;;;15.30;8.70;;;;;;;-2.24;68.11;99827.59;87032;1313;26518;-71
2021/12/04 00:21:07;;;;;;;19.80;11.20;;;;;;;-2.22;68.14;99819.21;86338;1313;1003647;-70
2021/12/04 00:23:16;;;;;;;16.80;8.70;;;;;;;-2.21;68.18;99817.35;86311;1313;1003090;-71
2021/12/04 00:25:22;;;;;;;14.10;8.80;;;;;;;-2.20;68.23;99819.92;87031;1313;22540;-70
2021/12/04 00:27:29;;;;;;;15.80;8.70;;;;;;;-2.21;68.06;99813.94;87148;1312;22562;-67
2021/12/04 00:29:35;;;;;;;18.30;9.90;;;;;;;-2.23;68.17;99815.30;87045;1313;24274;-67
2021/12/04 00:31:46;;;;;;;25.80;14.90;;;;;;;-2.23;68.29;99814.95;87066;1313;22568;-71
2021/12/04 00:33:55;;;;;;;23.60;13.40;;;;;;;-2.26;68.40;99812.20;87041;1312;22700;-72
2021/12/04 00:36:04;;;;;;;22.50;11.50;;;;;;;-2.28;68.34;99809.63;87055;1313;22576;-67
2021/12/04 00:50:14;;;;;;;15.50;9.10;;;;;;;-2.48;68.89;99799.80;86322;1313;1003390;-66
2021/12/04 00:52:24;;;;;;;14.10;8.30;;;;;;;-2.50;68.87;99794.15;87077;1313;25957;-67
2021/12/04 00:54:32;;;;;;;15.00;8.80;;;;;;;-2.51;68.80;99793.96;87069;1313;22574;-67
2021/12/04 00:56:43;;;;;;;12.80;9.00;;;;;;;-2.49;68.89;99789.88;87104;1313;23943;-70
2021/12/04 00:58:49;;;;;;;16.00;8.60;;;;;;;-2.46;68.94;99787.69;87007;1313;22626;-71
2021/12/04 01:00:59;;;;;;;15.90;7.90;;;;;;;-2.42;69.05;99783.25;87041;1313;23799;-67
2021/12/04 01:03:06;;;;;;;15.30;8.00;;;;;;;-2.40;68.94;99778.65;87080;1313;22575;-67
2021/12/04 01:05:15;;;;;;;16.90;7.90;;;;;;;-2.39;68.84;99775.23;87034;1313;22629;-67
2021/12/04 01:07:21;;;;;;;;;;;;;;;-2.38;68.82;99770.98;87041;1312;25439;-71
2021/12/04 01:09:28;;;;;;;16.30;9.10;;;;;;;-2.41;68.86;99769.77;87043;1312;24313;-71
2021/12/04 01:11:34;;;;;;;13.70;8.10;;;;;;;-2.41;68.86;99766.36;87062;1313;22697;-68
2021/12/04 01:13:43;;;;;;;13.50;9.00;;;;;;;-2.42;68.87;99768.73;86978;1313;22775;-67
2021/12/04 01:15:51;;;;;;;16.30;8.50;;;;;;;-2.44;68.80;99759.17;87060;1312;22568;-70
2021/12/04 01:17:57;;;;;;;14.20;7.50;;;;;;;-2.46;68.81;99753.69;87067;1313;22680;-72
2021/12/04 01:20:04;;;;;;;13.30;8.00;;;;;;;-2.50;68.84;99750.27;87059;1313;22601;-71
2021/12/04 01:22:13;;;;;;;14.70;8.50;;;;;;;-2.52;68.82;99744.09;87033;1313;24042;-72
2021/12/04 01:24:23;;;;;;;23.80;9.60;;;;;;;-2.55;68.92;99741.36;87037;1313;23847;-72
2021/12/04 01:26:29;;;;;;;15.20;9.00;;;;;;;-2.55;68.89;99738.45;87029;1313;22607;-67
2021/12/04 01:28:36;;;;;;;16.20;8.70;;;;;;;-2.55;68.86;99736.75;86341;1313;1016067;-67
2021/12/04 01:30:46;;;;;;;17.00;8.00;;;;;;;-2.53;68.91;99738.45;86986;1313;22695;-67
2021/12/04 01:32:53;;;;;;;18.20;9.30;;;;;;;-2.49;68.71;99735.75;86288;1313;1003883;-67
2021/12/04 01:35:02;;;;;;;15.20;8.70;;;;;;;-2.43;68.78;99734.40;87060;1313;22758;-69
2021/12/04 01:37:08;;;;;;;16.60;9.20;;;;;;;-2.39;68.63;99730.83;87041;1312;22577;-68
2021/12/04 01:39:19;;;;;;;15.40;8.50;;;;;;;-2.33;68.68;99727.09;86986;1313;22660;-69
2021/12/04 01:41:25;;;;;;;18.10;9.90;;;;;;;-2.28;68.72;99725.91;87092;1313;24292;-69
2021/12/04 01:43:32;;;;;;;17.80;9.40;;;;;;;-2.26;68.61;99725.08;87047;1313;23792;-69
2021/12/04 01:45:38;;;;;;;16.90;9.00;;;;;;;-2.23;68.52;99722.69;87058;1313;24144;-69
2021/12/04 01:47:45;;;;;;;15.60;9.30;;;;;;;-2.22;68.38;99720.46;87043;1312;22554;-69
2021/12/04 01:49:52;;;;;;;19.30;9.10;;;;;;;-2.21;68.23;99719.13;87062;1313;22808;-69
2021/12/04 01:52:01;;;;;;;17.90;9.40;;;;;;;-2.21;68.17;99718.27;87047;1313;22780;-69
2021/12/04 01:54:08;;;;;;;19.10;9.90;;;;;;;-2.22;68.29;99719.62;86321;1313;1003875;-69
2021/12/04 01:56:14;;;;;;;15.30;9.00;;;;;;;-2.22;68.24;99719.11;86329;1313;1003759;-72
2021/12/04 01:58:20;;;;;;;16.60;9.10;;;;;;;-2.24;68.16;99719.95;87054;1313;24382;-74
2021/12/04 02:00:29;;;;;;;17.10;8.90;;;;;;;-2.25;68.17;99723.20;87066;1313;25454;-74
2021/12/04 02:02:36;;;;;;;16.30;8.50;;;;;;;-2.28;68.12;99721.30;86997;1313;22581;-69
2021/12/04 02:04:46;;;;;;;17.90;8.90;;;;;;;-2.30;68.05;99719.09;86331;1313;1003030;-69
2021/12/04 02:06:52;;;;;;;15.50;8.10;;;;;;;-2.31;68.05;99715.15;87091;1313;22575;-70
2021/12/04 02:08:59;;;;;;;15.20;9.20;;;;;;;-2.31;68.10;99711.91;87042;1312;22648;-70
2021/12/04 02:11:05;;;;;;;16.90;7.80;;;;;;;-2.29;68.10;99709.18;87081;1313;22648;-70
2021/12/04 02:13:11;;;;;;;15.90;8.20;;;;;;;-2.27;67.93;99704.22;87052;1312;23821;-69
2021/12/04 02:15:21;;;;;;;14.00;8.30;;;;;;;-2.26;67.98;99696.21;87044;1313;22578;-70
2021/12/04 02:17:27;;;;;;;19.60;9.30;;;;;;;-2.22;68.13;99691.08;87070;1313;22583;-74
2021/12/04 02:19:33;;;;;;;15.00;8.50;;;;;;;-2.19;68.05;99697.59;87039;1313;22711;-74
2021/12/04 02:21:40;;;;;;;14.30;8.60;;;;;;;-2.16;68.07;99696.07;87002;1313;22557;-69
2021/12/04 02:23:46;;;;;;;23.50;9.80;;;;;;;-2.15;68.15;99692.48;87034;1313;26198;-70
2021/12/04 02:25:53;;;;;;;18.90;9.40;;;;;;;-2.15;67.98;99695.38;87051;1313;22582;-70
2021/12/04 02:28:01;;;;;;;20.70;9.80;;;;;;;-2.15;68.10;99689.74;87105;1312;22565;-70
2021/12/04 02:30:09;;;;;;;19.70;10.00;;;;;;;-2.15;67.93;99688.72;87095;1312;23019;-70
2021/12/04 02:32:16;;;;;;;14.30;8.50;;;;;;;-2.15;67.91;99687.02;87150;1311;22580;-70
2021/12/04 02:34:23;;;;;;;16.80;10.50;;;;;;;-2.14;67.90;99684.79;87057;1312;25454;-68
2021/12/04 02:36:30;;;;;;;16.30;8.30;;;;;;;-2.15;68.04;99687.35;87100;1311;22578;-73
2021/12/04 02:38:40;;;;;;;17.60;9.40;;;;;;;-2.15;67.91;99685.47;87122;1311;24315;-73
2021/12/04 02:40:46;;;;;;;17.70;9.30;;;;;;;-2.14;67.85;99685.98;87095;1311;23040;-73
2021/12/04 02:42:56;;;;;;;17.10;9.60;;;;;;;-2.15;67.70;99685.98;87060;1313;22779;-69
2021/12/04 02:45:07;;;;;;;15.40;9.30;;;;;;;-2.16;67.79;99684.27;87094;1311;22578;-69
2021/12/04 02:47:14;;;;;;;20.50;10.40;;;;;;;-2.18;67.82;99678.45;87062;1312;22634;-68
2021/12/04 02:49:23;;;;;;;19.60;10.40;;;;;;;-2.20;67.90;99674.69;87093;1312;23878;-69
2021/12/04 02:51:29;;;;;;;18.10;10.30;;;;;;;-2.18;67.84;99673.84;87086;1313;24934;-74
2021/12/04 02:53:35;;;;;;;18.90;8.60;;;;;;;-2.16;67.68;99667.87;87044;1312;22568;-74
2021/12/04 02:55:42;;;;;;;20.90;9.20;;;;;;;-2.13;67.74;99664.44;87080;1312;22566;-73
2021/12/04 02:57:52;;;;;;;22.10;10.00;;;;;;;-2.10;67.90;99659.50;87067;1311;22573;-75
2021/12/04 02:59:58;;;;;;;17.90;10.10;;;;;;;-2.05;67.94;99662.08;87055;1312;23819;-74
2021/12/04 03:02:10;;;;;;;20.30;10.70;;;;;;;-2.03;67.74;99662.42;87085;1313;22559;-70
2021/12/04 03:04:21;;;;;;;18.90;10.40;;;;;;;-2.01;67.70;99664.48;87085;1312;22651;-69
2021/12/04 03:06:27;;;;;;;24.30;12.20;;;;;;;-2.00;67.60;99659.52;87100;1312;22775;-74
2021/12/04 03:08:37;;;;;;;19.30;10.10;;;;;;;-2.01;67.49;99658.16;87099;1311;23026;-72
2021/12/04 03:10:43;;;;;;;22.10;10.90;;;;;;;-2.02;67.58;99657.81;87079;1312;22875;-74
2021/12/04 03:12:50;;;;;;;19.90;10.10;;;;;;;-2.03;67.69;99663.61;87089;1312;22564;-74
2021/12/04 03:14:59;;;;;;;18.60;9.90;;;;;;;-2.06;67.56;99666.17;87087;1311;22593;-75
2021/12/04 03:17:06;;;;;;;25.90;13.30;;;;;;;-2.07;67.42;99667.54;86355;1312;1002874;-69
2021/12/04 03:19:12;;;;;;;21.60;11.40;;;;;;;-2.08;67.69;99665.48;87087;1312;22820;-69
2021/12/04 03:21:22;;;;;;;20.60;10.70;;;;;;;-2.09;67.79;99658.14;87125;1312;22578;-69
2021/12/04 03:23:31;;;;;;;20.00;10.80;;;;;;;-2.09;67.52;99653.02;87066;1311;22716;-70
2021/12/04 03:25:42;;;;;;;23.60;12.20;;;;;;;-2.09;67.70;99648.73;86341;1312;1003875;-69
2021/12/04 03:27:51;;;;;;;23.20;11.70;;;;;;;-2.10;67.72;99647.89;87078;1312;22640;-74
2021/12/04 03:29:59;;;;;;;22.30;11.70;;;;;;;-2.11;67.61;99644.81;87091;1311;22578;-74
2021/12/04 03:32:36;;;;;;;19.20;10.40;;;;;;;-2.12;67.78;99639.69;87082;1312;25507;-70
2021/12/04 03:42:00;;;;;;;27.90;14.00;;;;;;;-1.99;67.88;99626.02;87099;1311;26527;-69
2021/12/04 03:44:09;;;;;;;20.70;11.70;;;;;;;-1.97;67.68;99623.13;87090;1312;22561;-69
2021/12/04 03:46:19;;;;;;;25.50;13.30;;;;;;;-1.94;67.68;99616.27;87059;1312;24398;-67
2021/12/04 03:50:51;;;;;;;23.00;13.10;;;;;;;-1.93;67.69;99607.39;87008;1311;22593;-68
2021/12/04 03:52:58;;;;;;;24.50;13.20;;;;;;;-1.95;67.56;99605.17;87112;1311;22668;-68
2021/12/04 03:55:05;;;;;;;23.80;12.20;;;;;;;-1.97;67.73;99603.98;87058;1312;26898;-68
2021/12/04 03:57:15;;;;;;;24.10;12.40;;;;;;;-1.99;67.74;99601.05;87106;1312;22586;-71
2021/12/04 03:59:24;;;;;;;27.90;13.10;;;;;;;-2.01;67.73;99605.52;87092;1311;24427;-72
2021/12/04 04:01:31;;;;;;;30.10;12.90;;;;;;;-2.03;67.78;99603.80;87061;1312;25545;-72
2021/12/04 04:03:38;;;;;;;25.80;14.70;;;;;;;-2.06;67.89;99603.98;87093;1311;22558;-71
2021/12/04 04:05:46;;;;;;;26.20;12.90;;;;;;;-2.09;67.95;99604.30;86338;1312;1003659;-71
2021/12/04 04:07:53;;;;;;;28.00;14.00;;;;;;;-2.11;68.00;99600.39;87063;1311;26500;-72
2021/12/04 04:10:02;;;;;;;29.10;13.80;;;;;;;-2.13;68.01;99602.09;87071;1312;24292;-72
2021/12/04 04:12:12;;;;;;;26.50;13.40;;;;;;;-2.15;68.03;99598.84;86369;1312;1002604;-72
2021/12/04 04:14:22;;;;;;;24.60;14.00;;;;;;;-2.18;68.04;99599.34;86415;1312;1003354;-72
2021/12/04 04:16:29;;;;;;;23.30;12.70;;;;;;;-2.18;68.05;99594.73;87177;1312;24363;-69
2021/12/04 04:18:35;;;;;;;25.50;12.10;;;;;;;-2.16;68.08;99595.95;87049;1313;25542;-68
2021/12/04 04:20:42;;;;;;;27.30;13.80;;;;;;;-2.13;68.45;99592.33;87071;1312;22572;-68
2021/12/04 04:22:49;;;;;;;26.90;13.90;;;;;;;-2.11;68.39;99592.02;87036;1313;22576;-72
2021/12/04 04:24:56;;;;;;;28.30;14.40;;;;;;;-2.08;68.32;99582.60;86359;1312;969414;-71
2021/12/04 04:27:03;;;;;;;25.40;13.60;;;;;;;-2.04;68.26;99581.76;87080;1312;22561;-71
2021/12/04 04:29:09;;;;;;;25.70;14.50;;;;;;;-2.02;68.26;99581.08;87072;1312;24293;-72
2021/12/04 04:31:19;;;;;;;27.60;14.50;;;;;;;-2.01;68.24;99579.71;86383;1312;1003766;-72
2021/12/04 04:33:27;;;;;;;21.40;12.80;;;;;;;-2.00;68.19;99582.95;86356;1312;1002954;-73
2021/12/04 04:35:34;;;;;;;22.30;13.10;;;;;;;-2.00;68.10;99578.01;87078;1312;22589;-72
2021/12/04 04:37:49;;;;;;;27.10;14.80;;;;;;;-2.01;68.18;99578.35;86375;1311;1003636;-72
2021/12/04 04:59:38;;;;;;;23.10;12.30;;;;;;;-1.89;68.29;99549.61;87048;1312;22825;-67
2021/12/04 05:11:40;;;;;;;23.90;13.00;;;;;;;-1.67;68.11;99550.11;87087;1312;22575;-67
2021/12/04 05:13:46;;;;;;;26.50;13.00;;;;;;;-1.65;68.17;99553.52;87114;1312;23029;-67
2021/12/04 05:16:09;;;;;;;22.80;12.70;;;;;;;-1.65;67.85;99551.80;86327;1312;1002670;-67
2021/12/04 05:18:23;;;;;;;22.80;12.60;;;;;;;-1.66;67.98;99546.17;87030;1313;22582;-67
2021/12/04 05:20:34;;;;;;;29.10;14.40;;;;;;;-1.66;68.08;99547.38;87069;1312;22562;-68
2021/12/04 05:22:44;;;;;;;22.60;12.40;;;;;;;-1.67;67.78;99548.39;87105;1312;24289;-72
2021/12/04 05:24:53;;;;;;;25.70;12.70;;;;;;;-1.67;67.93;99547.88;87074;1312;22581;-72
2021/12/04 05:27:03;;;;;;;15.40;9.10;;;;;;;-1.68;68.00;99541.38;87096;1312;23887;-72
2021/12/04 05:29:09;;;;;;;23.90;12.80;;;;;;;-1.68;67.98;99537.77;87107;1312;22578;-72
2021/12/04 05:31:20;;;;;;;27.20;13.30;;;;;;;-1.68;68.11;99540.35;87072;1311;22770;-70
2021/12/04 05:33:26;;;;;;;25.20;12.70;;;;;;;-1.68;67.94;99537.10;87047;1313;22577;-73
2021/12/04 05:35:33;;;;;;;23.90;12.10;;;;;;;-1.66;67.96;99537.28;86360;1312;1003687;-73
2021/12/04 05:37:39;;;;;;;20.30;11.20;;;;;;;-1.63;67.88;99530.42;87057;1312;22578;-72
2021/12/04 05:39:46;;;;;;;22.10;12.60;;;;;;;-1.58;68.09;99524.43;87095;1311;24299;-74
2021/12/04 05:41:52;;;;;;;22.90;14.10;;;;;;;-1.52;68.06;99521.52;87099;1313;25336;-72
2021/12/04 05:44:05;;;;;;;21.60;12.60;;;;;;;-1.48;68.04;99517.73;87045;1313;22800;-72
2021/12/04 05:46:14;;;;;;;22.70;11.70;;;;;;;-1.45;68.09;99514.64;87098;1312;22558;-68
2021/12/04 05:48:28;;;;;;;23.50;12.00;;;;;;;-1.42;67.94;99517.88;87042;1313;22588;-69
2021/12/04 05:50:55;;;;;;;21.30;12.10;;;;;;;-1.41;67.71;99516.17;87034;1313;22797;-68
2021/12/04 05:53:15;;;;;;;19.30;11.10;;;;;;;-1.41;67.72;99517.55;87091;1312;23859;-68
2021/12/04 05:55:23;;;;;;;22.20;11.30;;;;;;;-1.43;67.85;99514.46;87080;1312;22581;-69
2021/12/04 05:57:30;;;;;;;20.30;10.40;;;;;;;-1.42;67.69;99507.63;87050;1312;25399;-74
2021/12/04 05:59:36;;;;;;;22.00;10.50;;;;;;;-1.43;67.80;99504.03;87096;1312;22932;-71
2021/12/04 06:01:43;;;;;;;18.90;9.70;;;;;;;-1.42;67.77;99505.06;87058;1312;22643;-72
2021/12/04 06:03:49;;;;;;;20.70;11.40;;;;;;;-1.42;67.66;99504.04;87077;1311;22574;-73
2021/12/04 06:05:59;;;;;;;21.30;11.00;;;;;;;-1.43;67.66;99500.61;87072;1312;22555;-69
2021/12/04 06:08:08;;;;;;;26.20;13.30;;;;;;;-1.43;67.65;99502.67;87124;1312;22574;-68
2021/12/04 06:10:15;;;;;;;16.60;9.50;;;;;;;-1.44;67.61;99504.03;87117;1312;22567;-67
2021/12/04 06:12:21;;;;;;;17.60;9.80;;;;;;;-1.45;67.76;99503.18;87061;1313;22763;-68
2021/12/04 06:14:31;;;;;;;15.80;10.10;;;;;;;-1.45;67.62;99501.81;87075;1312;22678;-68
2021/12/04 06:16:37;;;;;;;17.90;10.00;;;;;;;-1.43;67.63;99502.83;87092;1311;22873;-68
2021/12/04 06:18:51;;;;;;;15.70;9.20;;;;;;;-1.39;67.71;99506.41;87076;1311;22577;-68
2021/12/04 06:23:25;;;;;;;15.00;8.60;;;;;;;-1.27;67.81;99515.10;87079;1311;22584;-73
2021/12/04 06:25:34;;;;;;;17.50;8.90;;;;;;;-1.21;67.73;99517.64;87072;1312;22771;-73
2021/12/04 06:27:41;;;;;;;16.90;9.70;;;;;;;-1.16;67.61;99518.30;86370;1312;1003512;-73
2021/12/04 06:29:50;;;;;;;18.50;9.30;;;;;;;-1.12;67.68;99518.63;87105;1312;23711;-73
2021/12/04 06:31:56;;;;;;;19.20;8.90;;;;;;;-1.08;67.67;99522.38;87083;1312;22810;-68
2021/12/04 06:34:03;;;;;;;21.90;10.40;;;;;;;-1.06;67.28;99527.16;87051;1313;25487;-68
2021/12/04 06:36:09;;;;;;;17.80;9.60;;;;;;;-1.05;67.21;99529.19;86398;1311;1002460;-72
2021/12/04 06:38:17;;;;;;;20.40;9.50;;;;;;;-1.03;67.28;99528.85;87039;1313;22603;-73
2021/12/04 06:40:27;;;;;;;15.80;9.00;;;;;;;-1.02;67.29;99525.94;87085;1312;24990;-73
2021/12/04 06:42:37;;;;;;;18.00;9.80;;;;;;;-1.01;66.99;99525.94;87041;1313;22581;-73
2021/12/04 06:44:43;;;;;;;18.10;8.70;;;;;;;-1.02;67.13;99527.84;87076;1312;22581;-73
2021/12/04 06:46:50;;;;;;;18.70;10.30;;;;;;;-1.02;67.31;99526.46;87105;1312;22563;-69
2021/12/04 06:49:05;;;;;;;17.00;9.00;;;;;;;-1.01;67.20;99529.18;86357;1312;1003789;-67
2021/12/04 06:51:22;;;;;;;14.10;7.90;;;;;;;-0.99;67.37;99528.48;86383;1312;1003168;-73
2021/12/04 06:53:32;;;;;;;16.00;8.90;;;;;;;-0.99;67.02;99525.74;87091;1312;25335;-73
2021/12/04 06:55:42;;;;;;;18.20;9.80;;;;;;;-0.98;67.16;99532.95;86369;1312;1003132;-72
2021/12/04 06:57:48;;;;;;;15.90;9.30;;;;;;;-0.98;67.24;99534.15;87084;1311;22592;-68
2021/12/04 06:59:56;;;;;;;18.00;8.80;;;;;;;-0.96;67.19;99536.35;87098;1312;22571;-69
2021/12/04 07:02:02;;;;;;;16.20;8.40;;;;;;;-0.93;67.07;99531.72;87087;1313;22693;-73
2021/12/04 07:04:08;;;;;;;13.50;7.60;;;;;;;-0.89;67.38;99534.94;87117;1312;22566;-74
2021/12/04 07:06:18;;;;;;;15.60;7.70;;;;;;;-0.84;67.27;99525.85;87083;1312;22555;-68
2021/12/04 07:08:27;;;;;;;13.20;7.70;;;;;;;-0.78;66.95;99527.36;87075;1313;24698;-68
2021/12/04 07:10:33;;;;;;;13.50;7.60;;;;;;;-0.71;66.76;99526.63;87110;1311;23893;-69
2021/12/04 07:12:40;;;;;;;12.10;7.60;;;;;;;-0.63;67.09;99528.80;87086;1312;22683;-73
2021/12/04 07:14:46;;;;;;;70.80;33.80;;;;;;;-0.57;67.10;99527.40;87064;1312;22661;-73
2021/12/04 07:16:53;;;;;;;63.30;34.60;;;;;;;-0.53;66.86;99527.88;87118;1311;22558;-74
2021/12/04 07:18:59;;;;;;;20.10;11.70;;;;;;;-0.47;66.81;99529.91;87069;1312;22570;-74
2021/12/04 07:21:08;;;;;;;13.60;8.60;;;;;;;-0.43;66.71;99527.83;87134;1312;22552;-69
2021/12/04 07:23:15;;;;;;;15.00;9.10;;;;;;;-0.42;66.33;99527.98;87080;1312;25975;-70
2021/12/04 07:25:24;;;;;;;14.60;8.00;;;;;;;-0.40;66.27;99526.77;87084;1312;22568;-69
2021/12/04 07:27:34;;;;;;;16.90;7.60;;;;;;;-0.38;66.43;99530.20;87125;1312;22656;-68
2021/12/04 07:29:43;;;;;;;14.30;7.80;;;;;;;-0.36;66.29;99532.89;87051;1313;22739;-68
2021/12/04 07:31:49;;;;;;;12.90;7.90;;;;;;;-0.33;66.36;99537.34;87061;1312;22718;-68
2021/12/04 07:33:56;;;;;;;16.20;9.50;;;;;;;-0.32;66.28;99537.51;87084;1312;25356;-69
2021/12/04 07:36:02;;;;;;;11.90;7.20;;;;;;;-0.29;66.21;99536.80;87116;1311;24022;-73
2021/12/04 07:38:13;;;;;;;13.20;8.60;;;;;;;-0.28;66.17;99533.02;87064;1313;24405;-74
2021/12/04 07:40:24;;;;;;;11.60;8.10;;;;;;;-0.27;66.25;99532.66;87079;1312;22558;-74
2021/12/04 07:42:33;;;;;;;13.00;8.50;;;;;;;-0.26;66.20;99530.42;87101;1311;22571;-73
2021/12/04 07:44:40;;;;;;;13.40;7.70;;;;;;;-0.25;65.98;99526.99;87141;1311;22556;-73
2021/12/04 07:46:49;;;;;;;12.20;7.10;;;;;;;-0.23;66.03;99534.35;87064;1313;25622;-68
2021/12/04 07:48:56;;;;;;;16.80;7.70;;;;;;;-0.21;66.00;99531.08;87096;1312;22699;-68
2021/12/04 07:51:02;;;;;;;14.30;7.90;;;;;;;-0.20;65.81;99528.33;87120;1311;22605;-72
2021/12/04 07:53:09;;;;;;;14.30;8.10;;;;;;;-0.18;65.90;99523.17;87087;1312;23737;-74
2021/12/04 07:55:15;;;;;;;13.30;7.60;;;;;;;-0.17;65.91;99524.71;87084;1312;22565;-74
2021/12/04 07:57:26;;;;;;;11.20;6.70;;;;;;;-0.16;65.80;99526.58;87083;1313;24295;-74
2021/12/04 07:59:35;;;;;;;9.70;6.80;;;;;;;-0.15;65.48;99524.69;87092;1312;22595;-74
2021/12/04 08:01:46;;;;;;;9.60;6.80;;;;;;;-0.15;65.71;99523.30;87107;1312;22620;-68
2021/12/04 08:03:55;;;;;;;11.40;7.10;;;;;;;-0.11;65.96;99522.94;87093;1312;23876;-68
2021/12/04 08:06:05;;;;;;;15.00;7.70;;;;;;;-0.06;65.92;99525.98;87068;1312;22561;-68
2021/12/04 08:08:12;;;;;;;9.90;6.20;;;;;;;0.01;65.63;99522.84;87078;1312;23776;-68
2021/12/04 08:10:19;;;;;;;13.70;8.00;;;;;;;0.06;65.81;99519.89;87053;1312;22555;-68
2021/12/04 08:12:29;;;;;;;12.10;7.40;;;;;;;0.11;65.61;99518.80;87049;1313;22685;-68
2021/12/04 08:14:35;;;;;;;12.10;7.20;;;;;;;0.16;65.69;99516.38;87086;1312;24304;-68
2021/12/04 08:16:46;;;;;;;12.90;7.30;;;;;;;0.21;65.60;99514.09;87111;1312;25392;-68
2021/12/04 08:18:56;;;;;;;12.10;7.70;;;;;;;0.24;65.42;99510.09;87058;1312;23809;-68
2021/12/04 08:21:05;;;;;;;12.70;7.10;;;;;;;0.27;65.17;99513.85;87079;1312;23891;-69
2021/12/04 08:23:17;;;;;;;11.30;7.70;;;;;;;0.28;65.24;99516.58;87110;1312;22574;-69
2021/12/04 08:25:40;;;;;;;11.60;6.70;;;;;;;0.30;65.41;99516.73;86347;1312;1003506;-69
2021/12/04 08:28:00;;;;;;;13.80;6.80;;;;;;;0.31;65.52;99512.27;87029;1313;22711;-67
2021/12/04 08:30:26;;;;;;;15.00;7.70;;;;;;;0.31;65.33;99510.55;86167;1315;1003528;-67
2021/12/04 08:36:01;;;;;;;;;;;;;;;;;;;;;
2021/12/04 08:38:47;;;;;;;13.20;8.20;;;;;;;0.36;65.77;99502.61;87079;1311;22784;-67
2021/12/04 08:41:21;;;;;;;13.00;8.40;;;;;;;0.39;65.86;99495.71;86369;1312;1003191;-68
2021/12/04 08:44:07;;;;;;;13.70;8.10;;;;;;;0.40;65.16;99487.80;86878;1313;22706;-72
2021/12/04 08:46:20;;;;;;;15.60;8.10;;;;;;;0.41;65.12;99484.72;87130;1312;22560;-73
2021/12/04 08:48:26;;;;;;;11.80;8.50;;;;;;;0.43;64.70;99485.02;87114;1312;23156;-74
2021/12/04 08:50:33;;;;;;;15.80;9.50;;;;;;;0.46;64.90;99487.75;87070;1313;22752;-74
2021/12/04 08:52:40;;;;;;;18.80;9.40;;;;;;;0.48;64.86;99489.60;87074;1313;23739;-74
2021/12/04 08:54:47;;;;;;;16.90;9.00;;;;;;;0.53;64.91;99488.00;86354;1312;1003254;-74
2021/12/04 08:56:54;;;;;;;15.20;9.00;;;;;;;0.57;64.88;99490.35;87122;1312;24137;-74
2021/12/04 08:59:05;;;;;;;13.00;8.60;;;;;;;0.62;64.79;99493.56;87041;1313;22597;-74
2021/12/04 09:01:22;;;;;;;11.20;7.80;;;;;;;0.66;65.11;99493.70;87091;1312;22651;-69
2021/12/04 09:03:33;;;;;;;14.20;8.30;;;;;;;0.71;64.71;99491.39;87068;1312;22624;-68
2021/12/04 09:05:42;;;;;;;12.90;7.60;;;;;;;0.75;64.57;99492.03;87092;1312;22777;-68
2021/12/04 09:07:53;;;;;;;10.60;8.00;;;;;;;0.79;64.81;99493.19;87096;1311;25408;-68
2021/12/04 09:10:02;;;;;;;12.50;7.10;;;;;;;0.83;64.74;99492.44;86357;1312;1002969;-68
2021/12/04 09:12:12;;;;;;;12.40;7.70;;;;;;;0.89;64.57;99486.89;87041;1312;24305;-73
2021/12/04 09:14:19;;;;;;;10.80;7.10;;;;;;;0.96;64.27;99480.95;87081;1313;25324;-74
2021/12/04 09:16:26;;;;;;;12.90;7.10;;;;;;;1.00;63.68;99479.69;87116;1312;22641;-74
2021/12/04 09:18:34;;;;;;;10.40;6.80;;;;;;;1.05;63.76;99477.75;87100;1312;22586;-74
2021/12/04 09:20:42;;;;;;;11.30;6.80;;;;;;;1.10;63.76;99470.80;87082;1312;23839;-74
2021/12/04 09:22:51;;;;;;;12.80;7.40;;;;;;;1.15;63.87;99470.21;87084;1313;22666;-73
2021/12/04 09:24:59;;;;;;;11.50;7.30;;;;;;;1.19;63.47;99471.52;87092;1312;24268;-74
2021/12/04 09:27:12;;;;;;;10.80;8.00;;;;;;;1.23;63.44;99466.48;87088;1312;22559;-68
2021/12/04 09:40:17;;;;;;;11.80;7.60;;;;;;;1.28;62.47;99469.49;87079;1312;22587;-68
2021/12/04 10:11:57;;;;;;;13.40;8.40;;;;;;;1.28;62.78;99452.14;86625;1317;22567;-67
2021/12/04 10:17:05;;;;;;;15.20;8.30;;;;;;;1.28;62.93;99448.53;86723;1316;26068;-72
2021/12/04 10:19:27;;;;;;;13.50;8.00;;;;;;;1.29;63.11;99449.05;87003;1312;22574;-67
2021/12/04 10:24:30;;;;;;;12.50;8.90;;;;;;;1.31;63.32;99447.46;86829;1315;22551;-68
2021/12/04 10:34:02;;;;;;;14.60;9.20;;;;;;;1.45;63.37;99430.41;87064;1312;24438;-74
2021/12/04 10:36:08;;;;;;;10.70;7.50;;;;;;;1.50;63.25;99425.16;87037;1313;22661;-68
2021/12/04 10:38:21;;;;;;;11.60;7.70;;;;;;;1.54;63.00;99420.63;87072;1312;24325;-73
2021/12/04 10:40:37;;;;;;;12.60;8.70;;;;;;;1.59;62.84;99420.39;87068;1312;22575;-73
2021/12/04 10:42:51;;;;;;;15.50;8.40;;;;;;;1.64;63.08;99420.81;87063;1313;22556;-74
2021/12/04 10:45:05;;;;;;;11.40;7.80;;;;;;;1.70;63.00;99419.85;87083;1312;22580;-73
2021/12/04 10:47:13;;;;;;;11.50;8.10;;;;;;;1.74;62.68;99415.30;87065;1312;22547;-73
2021/12/04 10:49:37;;;;;;;13.80;9.00;;;;;;;1.77;62.33;99409.74;87085;1312;22553;-73
2021/12/04 10:51:51;;;;;;;12.40;7.70;;;;;;;1.80;61.95;99409.02;87056;1312;22568;-73
2021/12/04 10:54:04;;;;;;;17.30;8.60;;;;;;;1.83;61.86;99406.05;87069;1312;22574;-73
2021/12/04 10:56:24;;;;;;;14.60;9.10;;;;;;;1.85;61.91;99403.59;87097;1312;22578;-74
2021/12/04 11:01:11;;;;;;;17.80;8.70;;;;;;;1.91;60.93;99397.27;86669;1318;22633;-74
2021/12/04 11:06:36;;;;;;;15.60;8.80;;;;;;;1.98;61.66;99399.06;87107;1312;22599;-74
2021/12/04 11:21:31;;;;;;;12.90;8.20;;;;;;;2.19;61.09;99391.61;86653;1318;22584;-75
2021/12/04 11:24:21;;;;;;;12.20;9.20;;;;;;;2.21;60.73;99389.15;86662;1318;22580;-74
2021/12/04 11:36:29;;;;;;;19.00;10.50;;;;;;;2.31;60.30;99386.19;86118;1314;1003188;-76
2021/12/04 11:38:53;;;;;;;16.90;9.40;;;;;;;2.34;60.52;99383.73;87000;1313;22574;-77
2021/12/04 11:41:26;;;;;;;12.90;8.00;;;;;;;2.36;60.50;99380.75;87044;1313;22633;-79
2021/12/04 11:43:47;;;;;;;22.10;10.50;;;;;;;2.38;60.58;99386.05;87042;1313;22708;-77
2021/12/04 11:46:12;;;;;;;17.00;9.90;;;;;;;2.41;60.51;99385.80;87073;1313;22650;-75
2021/12/04 11:48:30;;;;;;;15.50;7.30;;;;;;;2.43;60.27;99385.77;87048;1313;22576;-74
2021/12/04 11:50:39;;;;;;;15.50;9.30;;;;;;;2.43;60.16;99389.91;87076;1313;22740;-74
2021/12/04 11:52:49;;;;;;;12.30;8.70;;;;;;;2.45;60.13;99386.59;87064;1313;22688;-74
2021/12/04 11:54:58;;;;;;;13.00;7.80;;;;;;;2.45;60.01;99384.88;86969;1313;22596;-75
2021/12/04 11:57:07;;;;;;;18.60;10.00;;;;;;;2.46;60.04;99384.33;87069;1313;22648;-75
2021/12/04 11:59:14;;;;;;;16.70;9.60;;;;;;;2.47;60.26;99384.49;86233;1314;1003279;-68
2021/12/04 12:01:28;;;;;;;16.30;9.30;;;;;;;2.49;60.27;99382.23;87063;1312;22749;-76
2021/12/04 12:03:35;;;;;;;14.20;7.90;;;;;;;2.50;60.21;99383.90;86975;1313;24337;-74
2021/12/04 12:05:47;;;;;;;13.00;8.00;;;;;;;2.51;60.38;99377.69;87026;1312;22700;-76
2021/12/04 12:08:02;;;;;;;14.80;8.40;;;;;;;2.53;60.27;99382.29;87016;1313;22562;-75
2021/12/04 12:10:12;;;;;;;12.90;8.60;;;;;;;2.53;60.10;99375.58;87056;1312;24335;-74
2021/12/04 12:12:20;;;;;;;15.40;8.80;;;;;;;2.53;59.87;99378.52;87088;1312;25356;-73
2021/12/04 12:14:38;;;;;;;14.10;8.10;;;;;;;2.51;59.47;99380.97;87080;1312;22569;-73
2021/12/04 12:16:49;;;;;;;16.10;9.00;;;;;;;2.49;59.67;99377.39;87064;1312;23857;-75
2021/12/04 12:18:57;;;;;;;15.00;9.40;;;;;;;2.47;59.51;99378.11;87123;1312;22764;-75
2021/12/04 12:21:12;;;;;;;12.50;8.90;;;;;;;2.46;59.15;99376.76;87056;1312;22709;-74
2021/12/04 12:23:22;;;;;;;16.30;8.60;;;;;;;2.45;59.60;99378.33;86349;1311;1003091;-77